createdAt,value
2019-02-11T00:01:36.106Z,15.4
2019-02-11T00:06:34.334Z,15.3
2019-02-11T00:11:32.354Z,15.2
2019-02-11T00:16:30.517Z,15.2
2019-02-11T00:21:28.870Z,15.1
2019-02-11T00:26:26.934Z,15
2019-02-11T00:31:25.230Z,15
2019-02-11T00:36:23.687Z,14.4
2019-02-11T00:41:21.790Z,14.3
2019-02-11T00:46:20.135Z,14.3
2019-02-11T00:51:18.250Z,14.2
2019-02-11T00:56:16.374Z,14.1
2019-02-11T01:01:14.535Z,14.1
2019-02-11T01:06:12.670Z,14
2019-02-11T01:11:10.860Z,13.9
2019-02-11T01:16:08.832Z,13.9
2019-02-11T01:21:06.927Z,13.8
2019-02-11T01:26:04.854Z,13.8
2019-02-11T01:31:03.045Z,14.2
2019-02-11T01:36:01.164Z,14.1
2019-02-11T01:40:59.365Z,13.5
2019-02-11T01:45:57.530Z,14
2019-02-11T01:50:55.608Z,13.4
2019-02-11T01:55:53.808Z,13.4
2019-02-11T02:00:51.732Z,13.3
2019-02-11T02:05:49.795Z,13.2
2019-02-11T02:10:47.862Z,13.2
2019-02-11T02:15:45.987Z,13.6
2019-02-11T02:20:43.917Z,13
2019-02-11T02:25:42.087Z,13.5
2019-02-11T02:30:40.110Z,13
2019-02-11T02:35:37.631Z,12.9
2019-02-11T02:40:35.655Z,12.9
2019-02-11T02:45:33.754Z,12.8
2019-02-11T02:50:31.901Z,12.7
2019-02-11T02:55:30.185Z,13.1
2019-02-11T03:00:28.423Z,12.4
2019-02-11T03:05:26.781Z,12.1
2019-02-11T03:10:24.434Z,12.5
2019-02-11T03:15:22.635Z,12.4
2019-02-11T03:20:20.773Z,12.4
2019-02-11T03:25:18.950Z,12.3
2019-02-11T03:30:17.015Z,12.3
2019-02-11T03:35:14.858Z,12.7
2019-02-11T03:40:13.056Z,12.4
2019-02-11T03:45:10.937Z,12.1
2019-02-11T03:50:08.959Z,11.9
2019-02-11T03:55:07.016Z,12
2019-02-11T04:00:05.255Z,11.9
2019-02-11T04:05:03.310Z,11.9
2019-02-11T04:10:01.057Z,12.3
2019-02-11T04:14:59.237Z,11.8
2019-02-11T04:19:57.406Z,11.7
2019-02-11T04:24:55.665Z,12.2
2019-02-11T04:29:53.627Z,11.9
2019-02-11T04:34:51.739Z,11.5
2019-02-11T04:39:49.377Z,11.5
2019-02-11T04:44:47.563Z,12
2019-02-11T04:49:45.453Z,11.4
2019-02-11T04:54:43.556Z,11.4
2019-02-11T04:59:41.173Z,11.4
2019-02-11T05:04:39.332Z,11.3
2019-02-11T05:09:37.660Z,11.8
2019-02-11T05:14:43.425Z,11.2
2019-02-11T05:19:41.061Z,11.2
2019-02-11T05:24:39.253Z,11.1
2019-02-11T05:29:37.011Z,11
2019-02-11T05:34:35.028Z,11
2019-02-11T05:39:33.404Z,11.2
2019-02-11T05:44:31.516Z,10.9
2019-02-11T05:49:29.614Z,10.8
2019-02-11T05:54:27.310Z,10.8
2019-02-11T05:59:25.124Z,10.8
2019-02-11T06:04:23.187Z,10.7
2019-02-11T06:09:23.107Z,10.7
2019-02-11T06:14:21.018Z,10.6
2019-02-11T06:19:19.251Z,11.1
2019-02-11T06:24:17.454Z,11.1
2019-02-11T06:29:15.705Z,11
2019-02-11T06:34:13.716Z,11
2019-02-11T06:39:11.853Z,10.9
2019-02-11T06:44:09.886Z,10.3
2019-02-11T06:49:08.087Z,10.8
2019-02-11T06:54:05.916Z,10.8
2019-02-11T06:59:04.267Z,10.8
2019-02-11T07:04:02.482Z,10.7
2019-02-11T07:09:00.731Z,10.7
2019-02-11T07:13:58.784Z,10.6
2019-02-11T07:18:56.924Z,10.6
2019-02-11T07:23:55.186Z,10.6
2019-02-11T07:28:53.308Z,10.6
2019-02-11T07:33:51.542Z,10.5
2019-02-11T07:38:49.683Z,10.5
2019-02-11T07:43:47.804Z,10.5
2019-02-11T07:48:46.096Z,10.4
2019-02-11T07:53:44.207Z,10.4
2019-02-11T07:58:42.368Z,10.4
2019-02-11T08:03:40.636Z,10.4
2019-02-11T08:08:39.009Z,10.3
2019-02-11T08:13:37.261Z,10.3
2019-02-11T08:18:35.400Z,10.3
2019-02-11T08:23:33.601Z,10.3
2019-02-11T08:28:31.750Z,10.3
2019-02-11T08:33:30.484Z,9.7
2019-02-11T08:38:28.910Z,10.2
2019-02-11T08:43:27.363Z,9.7
2019-02-11T08:48:25.676Z,9.7
2019-02-11T08:53:23.944Z,9.7
2019-02-11T08:58:22.200Z,9.7
2019-02-11T09:03:20.526Z,10.2
2019-02-11T09:08:18.650Z,10.1
2019-02-11T09:13:16.794Z,10.1
2019-02-11T09:18:14.934Z,10.1
2019-02-11T09:23:13.285Z,10.1
2019-02-11T09:28:11.262Z,10.1
2019-02-11T09:33:09.527Z,10.1
2019-02-11T09:38:07.730Z,10.1
2019-02-11T09:43:06.188Z,9.6
2019-02-11T09:48:04.529Z,9.6
2019-02-11T09:53:02.768Z,9.5
2019-02-11T09:58:01.032Z,9.6
2019-02-11T10:02:59.207Z,9.6
2019-02-11T10:07:57.550Z,10.1
2019-02-11T10:12:55.894Z,10.1
2019-02-11T10:17:54.075Z,10.1
2019-02-11T10:22:52.532Z,9.6
2019-02-11T10:27:50.801Z,9.6
2019-02-11T10:32:49.038Z,9.6
2019-02-11T10:37:47.424Z,9.6
2019-02-11T10:42:45.556Z,10.1
2019-02-11T10:47:43.733Z,10.1
2019-02-11T10:52:41.924Z,9.6
2019-02-11T10:57:40.231Z,10.1
2019-02-11T11:02:38.372Z,10.1
2019-02-11T11:07:36.319Z,10.1
2019-02-11T11:12:34.721Z,10.1
2019-02-11T11:17:33.209Z,9.7
2019-02-11T11:22:31.383Z,9.7
2019-02-11T11:27:29.968Z,10.1
2019-02-11T11:32:28.204Z,9.6
2019-02-11T11:37:26.178Z,10.2
2019-02-11T11:42:24.455Z,10.2
2019-02-11T11:47:22.606Z,10.2
2019-02-11T11:52:20.945Z,9.7
2019-02-11T11:57:19.463Z,10.2
2019-02-11T12:02:17.729Z,10.2
2019-02-11T12:07:15.810Z,9.7
2019-02-11T12:12:13.858Z,9.7
2019-02-11T12:17:12.149Z,10.3
2019-02-11T12:22:12.733Z,9.8
2019-02-11T12:27:11.222Z,10.3
2019-02-11T12:32:09.405Z,10.3
2019-02-11T12:37:09.297Z,10.3
2019-02-11T12:42:07.769Z,9.8
2019-02-11T12:47:13.636Z,10.4
2019-02-11T12:52:11.801Z,9.8
2019-02-11T12:57:10.124Z,10.4
2019-02-11T13:02:08.601Z,10.4
2019-02-11T13:07:07.157Z,10.4
2019-02-11T13:12:05.224Z,10.5
2019-02-11T13:17:14.622Z,10.5
2019-02-11T13:22:27.038Z,10.1
2019-02-11T13:27:24.492Z,10.1
2019-02-11T13:32:22.610Z,10.1
2019-02-11T13:37:20.913Z,10.1
2019-02-11T13:42:19.032Z,10.1
2019-02-11T13:47:17.314Z,10.2
2019-02-11T13:52:15.669Z,10.2
2019-02-11T13:57:13.627Z,10.2
2019-02-11T14:02:12.025Z,10.3
2019-02-11T14:07:10.419Z,10.3
2019-02-11T14:12:08.703Z,10.8
2019-02-11T14:17:07.030Z,10.4
2019-02-11T14:22:05.422Z,10.4
2019-02-11T14:27:03.908Z,10.4
2019-02-11T14:32:02.518Z,10.5
2019-02-11T14:37:00.360Z,10.5
2019-02-11T14:41:58.443Z,10.6
2019-02-11T14:46:57.008Z,10.6
2019-02-11T14:51:55.080Z,10.6
2019-02-11T14:56:53.521Z,11.1
2019-02-11T15:01:51.205Z,10.6
2019-02-11T15:06:49.485Z,11.2
2019-02-11T15:11:47.653Z,10.7
2019-02-11T15:16:46.040Z,10.8
2019-02-11T15:21:44.788Z,11.3
2019-02-11T15:26:42.997Z,10.8
2019-02-11T15:31:41.463Z,11.3
2019-02-11T15:36:39.881Z,11.3
2019-02-11T15:41:38.465Z,11.3
2019-02-11T15:46:36.491Z,11.4
2019-02-11T15:51:34.691Z,10.8
2019-02-11T15:56:32.910Z,11.4
2019-02-11T16:01:31.495Z,10.9
2019-02-11T16:06:37.625Z,11.4
2019-02-11T16:11:35.844Z,11
2019-02-11T16:16:33.943Z,11.4
2019-02-11T16:21:32.208Z,11.4
2019-02-11T16:26:30.435Z,10.9
2019-02-11T16:31:28.841Z,10.9
2019-02-11T16:36:27.260Z,11.4
2019-02-11T16:41:25.801Z,11.4
2019-02-11T16:46:24.266Z,11.4
2019-02-11T16:51:22.977Z,11.4
2019-02-11T16:56:21.682Z,11.4
2019-02-11T17:01:19.590Z,10.9
2019-02-11T17:06:17.919Z,11.4
2019-02-11T17:11:16.400Z,11.4
2019-02-11T17:16:14.873Z,11.3
2019-02-11T17:21:13.218Z,10.8
2019-02-11T17:26:12.196Z,10.8
2019-02-11T17:31:11.206Z,11.3
2019-02-11T17:36:09.582Z,10.8
2019-02-11T17:41:07.967Z,11.3
2019-02-11T17:46:06.144Z,11.3
2019-02-11T17:51:04.533Z,10.8
2019-02-11T17:56:02.874Z,11.3
2019-02-11T18:01:01.038Z,11.3
2019-02-11T18:06:00.383Z,11.2
2019-02-11T18:10:58.308Z,10.7
2019-02-11T18:15:56.478Z,10.7
2019-02-11T18:20:54.847Z,10.6
2019-02-11T18:25:52.955Z,10.7
2019-02-11T18:30:51.345Z,11.2
2019-02-11T18:35:49.476Z,10.6
2019-02-11T18:40:47.616Z,10.6
2019-02-11T18:45:46.048Z,10.6
2019-02-11T18:50:43.910Z,10.6
2019-02-11T18:55:42.285Z,10.6
2019-02-11T19:00:40.341Z,10.6
2019-02-11T19:05:38.528Z,11.1
2019-02-11T19:10:36.706Z,10.6
2019-02-11T19:15:35.044Z,10.6
2019-02-11T19:20:32.920Z,10.6
2019-02-11T19:25:31.124Z,10.6
2019-02-11T19:30:29.397Z,10.5
2019-02-11T19:35:27.842Z,10.6
2019-02-11T19:40:26.181Z,10.6
2019-02-11T19:45:24.271Z,11
2019-02-11T19:50:22.599Z,10.5
2019-02-11T19:55:21.020Z,10.4
2019-02-11T20:00:19.262Z,11
2019-02-11T20:05:17.484Z,10.4
2019-02-11T20:10:15.746Z,10.4
2019-02-11T20:15:14.151Z,10.4
2019-02-11T20:20:12.651Z,10.4
2019-02-11T20:25:11.203Z,10.4
2019-02-11T20:30:09.352Z,10.4
2019-02-11T20:35:07.656Z,10.4
2019-02-11T20:40:06.156Z,10.4
2019-02-11T20:45:04.387Z,10.9
2019-02-11T20:50:08.781Z,10.3
2019-02-11T20:55:08.600Z,10.4
2019-02-11T21:00:06.934Z,10.8
2019-02-11T21:05:05.359Z,10.8
2019-02-11T21:10:03.634Z,10.8
2019-02-11T21:15:01.422Z,10.3
2019-02-11T21:19:59.875Z,10.8
2019-02-11T21:24:58.199Z,10.5
2019-02-11T21:29:56.392Z,10.7
2019-02-11T21:34:54.495Z,10.2
2019-02-11T21:39:52.876Z,10.6
2019-02-11T21:44:51.280Z,10.5
2019-02-11T21:49:49.766Z,10.7
2019-02-11T21:54:47.958Z,10.1
2019-02-11T21:59:46.139Z,10.2
2019-02-11T22:04:44.514Z,10.6
2019-02-11T22:09:42.668Z,10.6
2019-02-11T22:14:40.922Z,10.1
2019-02-11T22:19:39.086Z,10.1
2019-02-11T22:24:37.471Z,10.6
2019-02-11T22:29:35.861Z,10.6
2019-02-11T22:34:34.113Z,10
2019-02-11T22:39:32.388Z,10.5
2019-02-11T22:44:29.964Z,10.5
2019-02-11T22:49:28.390Z,10.5
2019-02-11T22:54:26.649Z,10.5
2019-02-11T22:59:25.173Z,9.9
2019-02-11T23:04:23.551Z,10.4
2019-02-11T23:09:21.980Z,10.2
2019-02-11T23:14:20.328Z,10.4
2019-02-11T23:19:18.570Z,10.4
2019-02-11T23:24:16.878Z,10.4
2019-02-11T23:29:15.091Z,10.3
2019-02-11T23:34:13.258Z,10.3
2019-02-11T23:39:11.553Z,10.1
2019-02-11T23:44:09.679Z,10.3
2019-02-11T23:49:07.958Z,9.8
2019-02-11T23:54:06.099Z,9.7
2019-02-11T23:59:04.281Z,9.7
